Time;durP1;ratioP1;P1;durP2;ratioP2;P2;SDS_P1;SDS_P2;PMS_P1;PMS_P2;Temp;Humidity;BMP_temperature;BMP_pressure;BME280_temperature;BME280_humidity;BME280_pressure;Samples;Min_cycle;Max_cycle;Signal;HPM_P1;HPM_P2
2022/03/14 00:01:38;;;;;;;0.30;0.20;;;;;;;2.52;55.46;96567.88;5137139;27;20497;-57
2022/03/14 00:04:08;;;;;;;0.30;0.20;;;;;;;2.81;53.60;96566.88;5136905;27;20430;-57
2022/03/14 00:06:38;;;;;;;0.30;0.20;;;;;;;2.92;51.90;96568.19;5137472;27;20465;-57
2022/03/14 00:09:07;;;;;;;0.30;0.20;;;;;;;2.50;50.10;96564.63;5137175;27;20501;-58
2022/03/14 00:11:37;;;;;;;0.23;0.20;;;;;;;2.85;52.50;96559.47;5136937;27;20458;-57
2022/03/14 00:14:06;;;;;;;0.20;0.20;;;;;;;2.87;50.71;96579.22;5138118;27;20422;-57
2022/03/14 00:16:41;;;;;;;0.20;0.20;;;;;;;3.21;51.40;96571.38;5139440;27;20963;-58
2022/03/14 00:19:10;;;;;;;0.30;0.20;;;;;;;3.39;49.34;96567.47;5139471;27;20437;-57
2022/03/14 00:21:42;;;;;;;0.30;0.20;;;;;;;3.44;49.18;96575.56;5140460;27;20426;-58
2022/03/14 00:24:12;;;;;;;0.30;0.20;;;;;;;3.06;48.75;96522.75;5136340;27;20438;-57
2022/03/14 00:26:41;;;;;;;0.30;0.20;;;;;;;3.64;48.77;96574.63;5136314;27;20950;-57
2022/03/14 00:29:10;;;;;;;0.30;0.30;;;;;;;3.61;48.12;96580.28;5136221;27;20426;-57
2022/03/14 00:31:39;;;;;;;0.30;0.20;;;;;;;3.01;48.93;96496.34;5136035;27;20426;-57
2022/03/14 00:34:09;;;;;;;0.30;0.20;;;;;;;3.20;48.96;96587.31;5136191;27;20433;-57
2022/03/14 00:36:37;;;;;;;0.30;0.20;;;;;;;3.46;50.46;96590.09;5136796;27;20483;-57
2022/03/14 00:39:07;;;;;;;0.27;0.17;;;;;;;3.26;48.99;96591.78;5135934;27;20468;-57
2022/03/14 00:41:36;;;;;;;0.20;0.20;;;;;;;2.68;48.85;96579.09;5135908;27;20457;-57
2022/03/14 00:44:04;;;;;;;0.30;0.20;;;;;;;2.52;50.27;96593.25;5136218;27;20446;-57
2022/03/14 00:46:37;;;;;;;0.20;0.20;;;;;;;2.69;51.56;96591.97;5135825;27;20469;-57
2022/03/14 00:49:06;;;;;;;0.30;0.20;;;;;;;2.78;51.72;96584.81;5136270;27;20454;-57
2022/03/14 00:51:35;;;;;;;0.30;0.20;;;;;;;2.00;58.35;96543.03;5135730;27;20509;-58
2022/03/14 00:54:04;;;;;;;0.23;0.20;;;;;;;2.41;52.31;96596.34;5135979;27;20519;-57
2022/03/14 00:56:35;;;;;;;0.30;0.20;;;;;;;2.43;62.56;96595.16;5135580;27;20474;-57
2022/03/14 00:59:04;;;;;;;0.30;0.20;;;;;;;2.87;63.33;96596.75;5135572;27;20449;-57
2022/03/14 01:01:32;;;;;;;0.27;0.20;;;;;;;1.86;52.62;96591.75;5135438;27;20426;-57
2022/03/14 01:04:01;;;;;;;0.20;0.20;;;;;;;2.07;54.11;96601.44;5135245;27;20518;-57
2022/03/14 01:06:30;;;;;;;0.30;0.20;;;;;;;1.98;55.72;96603.34;5135454;27;20443;-57
2022/03/14 01:08:58;;;;;;;0.20;0.20;;;;;;;2.49;53.29;96602.28;5135472;27;20415;-57
2022/03/14 01:11:26;;;;;;;0.30;0.20;;;;;;;2.39;51.64;96598.34;5135359;27;20957;-57
2022/03/14 01:13:56;;;;;;;0.23;0.20;;;;;;;2.76;50.07;96595.44;5135330;27;20494;-57
2022/03/14 01:16:26;;;;;;;0.30;0.20;;;;;;;2.38;50.53;96594.91;5135313;27;20957;-57
2022/03/14 01:18:54;;;;;;;0.30;0.20;;;;;;;2.52;52.67;96596.66;5135345;27;20455;-57
2022/03/14 01:21:24;;;;;;;0.30;0.30;;;;;;;2.76;50.89;96597.28;5135404;27;20506;-58
2022/03/14 01:23:52;;;;;;;0.30;0.20;;;;;;;2.99;50.17;96605.69;5135477;27;20450;-58
2022/03/14 01:26:20;;;;;;;0.30;0.23;;;;;;;3.03;49.49;96601.72;5135002;27;20419;-57
2022/03/14 01:28:49;;;;;;;0.20;0.20;;;;;;;2.74;50.25;96599.25;5135378;27;20427;-57
2022/03/14 01:31:19;;;;;;;0.20;0.20;;;;;;;2.83;49.24;96596.34;5135050;27;20948;-57
2022/03/14 01:33:47;;;;;;;0.20;0.20;;;;;;;2.92;48.79;96579.47;5135011;27;20463;-57
2022/03/14 01:36:17;;;;;;;0.50;0.50;;;;;;;3.05;47.94;96611.00;5134728;27;20514;-57
2022/03/14 01:38:46;;;;;;;0.30;0.20;;;;;;;2.78;48.30;96610.97;5134860;27;20906;-57
2022/03/14 01:41:17;;;;;;;0.20;0.20;;;;;;;2.66;49.01;96613.28;5134826;27;20912;-57
2022/03/14 01:43:47;;;;;;;0.23;0.20;;;;;;;2.70;48.77;96598.84;5134107;27;20549;-57
2022/03/14 01:46:18;;;;;;;0.30;0.30;;;;;;;2.66;48.60;96587.09;5135052;27;20423;-57
2022/03/14 01:48:49;;;;;;;0.30;0.20;;;;;;;2.92;48.23;96615.31;5134985;27;20434;-57
2022/03/14 01:51:18;;;;;;;0.20;0.20;;;;;;;2.96;48.29;96609.50;5134634;27;20430;-57
2022/03/14 01:53:46;;;;;;;5.50;0.70;;;;;;;2.87;49.81;96620.31;5134470;27;20560;-57
2022/03/14 01:56:14;;;;;;;0.23;0.20;;;;;;;2.96;48.50;96622.59;5134980;27;20415;-57
2022/03/14 01:58:43;;;;;;;0.30;0.20;;;;;;;2.74;48.07;96604.50;5134461;27;20906;-57
2022/03/14 02:01:12;;;;;;;0.23;0.20;;;;;;;2.87;50.38;96628.16;5134507;27;20995;-57
2022/03/14 02:03:42;;;;;;;0.30;0.20;;;;;;;2.73;50.14;96626.44;5134509;27;20414;-57
2022/03/14 02:06:11;;;;;;;0.20;0.20;;;;;;;2.41;50.30;96636.41;5134749;27;20421;-57
2022/03/14 02:08:39;;;;;;;0.30;0.20;;;;;;;2.34;51.35;96640.78;5134169;27;20549;-57
2022/03/14 02:11:08;;;;;;;0.20;0.20;;;;;;;2.71;50.97;96631.84;5134306;27;20498;-57
2022/03/14 02:13:36;;;;;;;0.27;0.20;;;;;;;2.73;49.21;96635.13;5133779;27;20929;-57
2022/03/14 02:16:05;;;;;;;0.30;0.20;;;;;;;2.70;48.30;96626.81;5134117;27;20922;-57
2022/03/14 02:18:33;;;;;;;0.20;0.20;;;;;;;2.97;47.95;96645.19;5134411;27;20415;-57
2022/03/14 02:21:05;;;;;;;0.30;0.30;;;;;;;2.93;47.85;96643.13;5134103;27;20454;-56
2022/03/14 02:23:34;;;;;;;0.20;0.20;;;;;;;2.90;47.44;96641.69;5134045;27;20518;-57
2022/03/14 02:26:02;;;;;;;0.23;0.20;;;;;;;2.10;49.96;96651.56;5134084;27;20431;-57
2022/03/14 02:28:31;;;;;;;0.30;0.20;;;;;;;1.91;49.83;96660.81;5134275;27;20465;-57
2022/03/14 02:31:03;;;;;;;0.30;0.27;;;;;;;1.86;49.47;96644.03;5134286;27;20426;-57
2022/03/14 02:33:32;;;;;;;0.20;0.20;;;;;;;2.38;48.40;96662.94;5133753;27;20465;-57
2022/03/14 02:36:01;;;;;;;0.20;0.20;;;;;;;2.37;49.25;96666.56;5134433;27;20418;-57
2022/03/14 02:38:30;;;;;;;0.50;0.47;;;;;;;2.45;49.03;96674.28;5133953;27;20462;-57
2022/03/14 02:40:59;;;;;;;0.20;0.20;;;;;;;1.92;49.33;96664.22;5133523;27;20461;-57
2022/03/14 02:43:27;;;;;;;0.20;0.20;;;;;;;1.44;51.73;96675.22;5133657;27;20430;-57
2022/03/14 02:45:56;;;;;;;0.23;0.17;;;;;;;2.15;49.88;96667.50;5133736;27;20506;-57
2022/03/14 02:48:24;;;;;;;0.20;0.20;;;;;;;1.75;49.38;96668.00;5133192;27;20428;-57
2022/03/14 02:50:53;;;;;;;0.30;0.20;;;;;;;2.07;49.93;96683.31;5133129;27;20419;-57
2022/03/14 02:53:22;;;;;;;0.20;0.20;;;;;;;2.28;49.51;96682.53;5133032;27;21041;-57
2022/03/14 02:55:52;;;;;;;0.50;0.50;;;;;;;2.65;49.50;96684.16;5133102;27;20411;-57
2022/03/14 02:58:20;;;;;;;0.20;0.20;;;;;;;2.63;48.33;96681.72;5133336;27;20918;-57
2022/03/14 03:00:50;;;;;;;0.20;0.20;;;;;;;2.52;48.53;96680.41;5133127;27;20862;-57
2022/03/14 03:03:19;;;;;;;0.20;0.20;;;;;;;2.30;47.93;96672.72;5133585;27;20423;-57
2022/03/14 03:05:48;;;;;;;0.20;0.20;;;;;;;2.22;47.94;96694.56;5133185;27;20435;-57
2022/03/14 03:08:16;;;;;;;0.20;0.20;;;;;;;2.16;48.27;96692.69;5133159;27;20525;-57
2022/03/14 03:10:45;;;;;;;0.20;0.20;;;;;;;1.98;48.25;96689.63;5133388;27;20488;-57
2022/03/14 03:13:15;;;;;;;0.20;0.20;;;;;;;2.36;47.03;96691.09;5133143;27;20446;-57
2022/03/14 03:15:43;;;;;;;0.20;0.20;;;;;;;2.60;46.55;96692.56;5132935;27;20530;-57
2022/03/14 03:18:13;;;;;;;0.60;0.60;;;;;;;2.82;46.24;96686.34;5133163;27;20447;-57
2022/03/14 03:20:42;;;;;;;0.20;0.20;;;;;;;2.76;46.92;96697.53;5132981;27;20426;-57
2022/03/14 03:23:11;;;;;;;0.20;0.20;;;;;;;2.98;46.09;96687.91;5133263;27;20840;-57
2022/03/14 03:25:39;;;;;;;0.20;0.20;;;;;;;2.73;46.48;96700.56;5132187;27;21002;-57
2022/03/14 03:28:07;;;;;;;0.20;0.20;;;;;;;2.68;46.98;96704.72;5133131;27;20410;-57
2022/03/14 03:30:37;;;;;;;0.20;0.20;;;;;;;2.61;47.90;96709.09;5132791;27;20430;-57
2022/03/14 03:33:06;;;;;;;0.30;0.30;;;;;;;2.55;48.20;96711.41;5132976;27;20513;-57
2022/03/14 03:35:34;;;;;;;0.30;0.30;;;;;;;2.49;48.35;96716.59;5132937;27;20458;-57
2022/03/14 03:38:03;;;;;;;0.20;0.20;;;;;;;2.53;49.08;96718.66;5133014;27;20989;-57
2022/03/14 03:40:31;;;;;;;0.20;0.20;;;;;;;2.43;48.43;96715.53;5132861;27;20484;-57
2022/03/14 03:42:59;;;;;;;0.27;0.23;;;;;;;2.28;48.33;96730.44;5132871;27;20521;-58
2022/03/14 03:45:28;;;;;;;0.20;0.20;;;;;;;1.97;49.59;96731.66;5132616;28;20487;-58
2022/03/14 03:47:58;;;;;;;0.20;0.20;;;;;;;1.77;49.92;96732.19;5132540;28;20915;-57
2022/03/14 03:50:26;;;;;;;2.33;2.33;;;;;;;1.66;50.64;96737.06;5132934;28;20427;-58
2022/03/14 03:52:55;;;;;;;0.20;0.20;;;;;;;1.57;51.38;96744.16;5132997;28;20509;-57
2022/03/14 03:55:23;;;;;;;0.20;0.20;;;;;;;1.54;51.59;96746.31;5132906;27;20969;-58
2022/03/14 03:57:51;;;;;;;0.73;0.73;;;;;;;1.40;52.82;96744.47;5133003;28;20454;-58
2022/03/14 04:00:21;;;;;;;0.20;0.20;;;;;;;1.32;53.96;96752.41;5132741;27;20518;-58
2022/03/14 04:02:50;;;;;;;0.20;0.20;;;;;;;1.33;54.04;96756.63;5132609;28;20483;-58
2022/03/14 04:05:20;;;;;;;0.20;0.20;;;;;;;1.29;55.03;96759.59;5132840;27;20467;-58
2022/03/14 04:07:49;;;;;;;0.20;0.20;;;;;;;1.08;55.72;96762.06;5132267;28;21039;-58
2022/03/14 04:10:18;;;;;;;0.30;0.20;;;;;;;1.18;55.90;96764.44;5132594;28;20415;-57
2022/03/14 04:12:47;;;;;;;0.40;0.40;;;;;;;1.16;56.60;96764.59;5132484;28;20942;-57
2022/03/14 04:15:16;;;;;;;0.20;0.20;;;;;;;1.04;56.55;96765.19;5132738;28;20901;-57
2022/03/14 04:17:44;;;;;;;0.30;0.30;;;;;;;1.06;56.69;96768.44;5132329;28;20462;-57
2022/03/14 04:20:13;;;;;;;0.30;0.20;;;;;;;1.00;56.71;96775.19;5132866;28;20790;-57
2022/03/14 04:22:43;;;;;;;0.20;0.20;;;;;;;1.06;56.84;96778.88;5132657;28;20879;-57
2022/03/14 04:25:11;;;;;;;0.30;0.30;;;;;;;1.06;56.64;96784.91;5132287;28;20446;-57
2022/03/14 04:27:40;;;;;;;0.20;0.20;;;;;;;1.02;56.86;96780.22;5132278;28;20860;-57
2022/03/14 04:30:10;;;;;;;1.03;0.97;;;;;;;0.89;56.37;96780.78;5132379;28;20463;-57
2022/03/14 04:32:38;;;;;;;0.77;0.77;;;;;;;0.90;56.85;96785.03;5133796;28;20434;-57
2022/03/14 04:35:07;;;;;;;0.40;0.40;;;;;;;0.80;57.55;96794.06;5133198;27;20461;-58
2022/03/14 04:37:36;;;;;;;0.40;0.40;;;;;;;0.85;57.38;96797.78;5136121;27;20470;-57
2022/03/14 04:40:08;;;;;;;0.20;0.20;;;;;;;0.33;58.05;96783.72;5136083;27;20495;-57
2022/03/14 04:42:37;;;;;;;0.20;0.20;;;;;;;0.57;58.04;96797.47;5135355;27;21003;-57
2022/03/14 04:45:06;;;;;;;0.30;0.20;;;;;;;0.43;57.85;96808.59;5135531;27;20457;-58
2022/03/14 04:47:35;;;;;;;0.60;0.60;;;;;;;0.30;58.78;96797.09;5133700;27;21068;-57
2022/03/14 04:50:04;;;;;;;0.30;0.23;;;;;;;0.11;59.16;96800.09;5133584;27;20431;-57
2022/03/14 04:52:32;;;;;;;1.53;1.00;;;;;;;-0.14;61.11;96807.16;5133685;27;20431;-57
2022/03/14 04:55:02;;;;;;;0.40;0.20;;;;;;;0.15;61.90;96811.81;5133494;27;20505;-58
2022/03/14 04:57:32;;;;;;;0.90;0.90;;;;;;;-0.05;60.28;96759.25;5133855;27;21013;-58
2022/03/14 05:00:00;;;;;;;0.37;0.37;;;;;;;0.31;59.82;96806.53;5133568;27;20427;-57
2022/03/14 05:02:29;;;;;;;0.20;0.20;;;;;;;0.12;60.04;96822.56;5135704;27;20761;-57
2022/03/14 05:04:58;;;;;;;0.20;0.20;;;;;;;0.24;59.66;96822.03;5135611;27;20939;-57
2022/03/14 05:07:26;;;;;;;0.20;0.20;;;;;;;0.32;59.69;96824.63;5135007;27;21133;-57
2022/03/14 05:09:54;;;;;;;1.60;1.30;;;;;;;0.34;57.80;96824.44;5135437;27;20480;-58
2022/03/14 05:12:24;;;;;;;0.87;0.87;;;;;;;0.52;57.46;96827.63;5135419;27;20457;-58
2022/03/14 05:14:54;;;;;;;0.40;0.40;;;;;;;0.62;56.75;96823.84;5135319;27;20869;-57
2022/03/14 05:17:22;;;;;;;5.83;0.83;;;;;;;0.60;56.78;96820.59;5135395;27;20423;-57
2022/03/14 05:19:51;;;;;;;0.30;0.30;;;;;;;0.43;58.20;96844.31;5135364;27;20422;-58
2022/03/14 05:22:20;;;;;;;0.30;0.30;;;;;;;0.50;58.03;96829.59;5135591;27;20430;-58
2022/03/14 05:24:49;;;;;;;0.30;0.20;;;;;;;0.74;56.67;96832.09;5135211;27;20426;-57
2022/03/14 05:27:18;;;;;;;0.23;0.20;;;;;;;0.81;55.97;96843.47;5135271;27;20419;-56
2022/03/14 05:29:46;;;;;;;0.30;0.20;;;;;;;0.73;54.44;96808.78;5134813;27;20495;-57
2022/03/14 05:32:16;;;;;;;0.20;0.20;;;;;;;0.82;54.40;96839.88;5135658;27;20418;-56
2022/03/14 05:34:45;;;;;;;0.33;0.23;;;;;;;0.44;55.49;96849.34;5134770;27;20527;-57
2022/03/14 05:37:13;;;;;;;0.70;0.70;;;;;;;0.49;56.65;96848.84;5134977;27;20453;-57
2022/03/14 05:39:42;;;;;;;0.20;0.20;;;;;;;0.46;57.17;96831.72;5135110;27;20808;-57
2022/03/14 05:42:11;;;;;;;0.20;0.20;;;;;;;1.20;53.24;96859.06;5134715;27;20980;-57
2022/03/14 05:44:45;;;;;;;0.20;0.20;;;;;;;1.56;50.28;96856.69;5134378;27;20426;-57
2022/03/14 05:47:14;;;;;;;0.20;0.20;;;;;;;1.60;50.63;96856.16;5133548;27;20423;-57
2022/03/14 05:49:44;;;;;;;0.30;0.30;;;;;;;2.00;49.79;96854.97;5134440;27;20465;-57
2022/03/14 05:52:15;;;;;;;0.30;0.20;;;;;;;1.99;49.06;96861.22;5134740;27;20536;-56
2022/03/14 05:54:43;;;;;;;0.30;0.30;;;;;;;1.85;49.52;96864.59;5134562;27;20513;-57
2022/03/14 05:57:12;;;;;;;0.57;0.57;;;;;;;1.64;50.43;96869.69;5134973;27;20422;-56
2022/03/14 05:59:40;;;;;;;0.20;0.20;;;;;;;1.33;50.79;96861.13;5134205;27;21059;-57
2022/03/14 06:02:09;;;;;;;0.73;0.73;;;;;;;1.31;51.94;96865.69;5134441;27;20454;-57
2022/03/14 06:04:38;;;;;;;0.20;0.20;;;;;;;1.31;52.90;96870.94;5134602;27;20430;-56
2022/03/14 06:07:08;;;;;;;0.40;0.40;;;;;;;1.26;52.78;96877.47;5134220;27;20464;-57
2022/03/14 06:09:37;;;;;;;0.40;0.40;;;;;;;1.59;51.28;96866.81;5134010;27;20439;-56
2022/03/14 06:12:06;;;;;;;0.33;0.30;;;;;;;1.82;50.03;96872.81;5134579;27;20561;-57
2022/03/14 06:14:36;;;;;;;0.20;0.20;;;;;;;1.75;51.14;96874.50;5134360;27;20963;-56
2022/03/14 06:17:05;;;;;;;5.17;4.87;;;;;;;1.54;61.45;96876.97;5134197;27;20962;-56
2022/03/14 06:19:33;;;;;;;0.23;0.20;;;;;;;1.49;54.70;96877.50;5134533;27;20505;-56
2022/03/14 06:22:02;;;;;;;1.00;1.00;;;;;;;1.35;56.09;96877.41;5134528;27;20449;-56
2022/03/14 06:24:37;;;;;;;0.60;0.60;;;;;;;1.31;59.69;96881.38;5134130;27;20456;-56
2022/03/14 06:27:06;;;;;;;1.60;1.60;;;;;;;1.42;58.30;96884.38;5134050;27;20434;-56
2022/03/14 06:29:35;;;;;;;0.20;0.20;;;;;;;1.41;61.75;96881.97;5133664;27;20434;-57
2022/03/14 06:32:04;;;;;;;0.60;0.60;;;;;;;0.99;59.95;96892.81;5133888;27;20518;-56
2022/03/14 06:34:32;;;;;;;0.77;0.77;;;;;;;1.33;57.69;96900.28;5133897;27;20921;-55
2022/03/14 06:37:01;;;;;;;0.50;0.50;;;;;;;2.01;56.20;96900.25;5133668;27;20506;-55
2022/03/14 06:39:29;;;;;;;0.30;0.30;;;;;;;2.69;53.19;96881.72;5134159;27;20419;-55
2022/03/14 06:42:01;;;;;;;0.50;0.50;;;;;;;3.10;50.64;96901.19;5133892;27;20454;-55
2022/03/14 06:44:30;;;;;;;0.40;0.40;;;;;;;3.34;48.87;96889.56;5133902;27;20786;-56
2022/03/14 06:46:58;;;;;;;0.30;0.20;;;;;;;3.82;46.74;96897.50;5132609;27;20459;-57
2022/03/14 06:49:26;;;;;;;0.40;0.40;;;;;;;4.31;46.84;96894.03;5133549;27;20463;-56
2022/03/14 06:51:55;;;;;;;1.07;1.07;;;;;;;4.82;44.19;96886.69;5133440;27;20922;-57
2022/03/14 06:54:23;;;;;;;1.03;1.03;;;;;;;4.64;43.83;96900.31;5133312;27;20427;-57
2022/03/14 06:56:51;;;;;;;0.60;0.60;;;;;;;5.99;41.93;96893.31;5133474;27;20553;-57
2022/03/14 06:59:21;;;;;;;0.70;0.70;;;;;;;6.31;40.10;96882.75;5133500;27;20511;-57
2022/03/14 07:01:50;;;;;;;1.33;1.33;;;;;;;6.05;39.75;96893.28;5133189;27;20422;-57
2022/03/14 07:04:18;;;;;;;0.50;0.40;;;;;;;6.50;39.28;96893.47;5133197;27;20423;-56
2022/03/14 07:06:47;;;;;;;4.00;0.70;;;;;;;7.00;37.21;96893.56;5132492;27;20895;-55
2022/03/14 07:09:15;;;;;;;0.40;0.40;;;;;;;6.26;37.07;96858.88;5132622;27;20434;-54
2022/03/14 07:11:43;;;;;;;1.67;0.80;;;;;;;6.39;37.41;96893.09;5132870;27;20463;-53
2022/03/14 07:14:12;;;;;;;0.50;0.40;;;;;;;6.56;37.71;96887.38;5132991;27;20460;-54
2022/03/14 07:16:42;;;;;;;0.97;0.50;;;;;;;7.04;36.24;96907.94;5133301;27;20561;-53
2022/03/14 07:19:10;;;;;;;0.40;0.30;;;;;;;8.29;35.76;96886.13;5132007;27;20443;-52
2022/03/14 07:21:41;;;;;;;0.70;0.53;;;;;;;8.55;35.15;96896.44;5132706;27;20454;-52
2022/03/14 07:24:10;;;;;;;1.40;1.20;;;;;;;8.82;32.74;96870.56;5133184;27;20513;-53
2022/03/14 07:26:38;;;;;;;1.63;1.53;;;;;;;9.11;33.78;96858.44;5132918;27;20461;-52
2022/03/14 07:29:07;;;;;;;1.00;0.90;;;;;;;9.55;33.29;96847.47;5132791;27;20470;-52
2022/03/14 07:31:37;;;;;;;2.00;1.90;;;;;;;10.35;32.47;96832.78;5132921;27;20458;-53
2022/03/14 07:34:07;;;;;;;0.40;0.30;;;;;;;10.39;32.10;96879.00;5132762;27;20953;-53
2022/03/14 07:36:37;;;;;;;0.90;0.67;;;;;;;9.08;33.38;96888.78;5132820;27;20458;-54
2022/03/14 07:39:06;;;;;;;0.80;0.80;;;;;;;8.71;34.73;96890.59;5132758;27;20426;-53
2022/03/14 07:41:34;;;;;;;6.53;2.60;;;;;;;8.03;34.41;96881.81;5133007;27;20901;-54
2022/03/14 07:44:03;;;;;;;4.77;0.70;;;;;;;8.67;34.92;96878.03;5133059;27;20497;-53
2022/03/14 07:46:34;;;;;;;0.97;0.97;;;;;;;8.61;35.38;96884.19;5132950;27;20442;-54
2022/03/14 07:49:05;;;;;;;3.43;0.40;;;;;;;9.32;33.50;96879.13;5132414;28;20426;-53
2022/03/14 07:51:34;;;;;;;2.77;1.10;;;;;;;9.27;32.53;96886.91;5132752;27;20479;-54
2022/03/14 07:54:03;;;;;;;1.23;0.50;;;;;;;9.81;32.02;96870.94;5132592;28;20830;-54
2022/03/14 07:56:31;;;;;;;0.80;0.80;;;;;;;11.13;31.54;96880.09;5132950;27;20496;-54
2022/03/14 07:59:00;;;;;;;0.80;0.80;;;;;;;9.76;31.09;96873.44;5132596;28;20463;-56
2022/03/14 08:01:28;;;;;;;4.77;0.50;;;;;;;9.20;32.98;96881.72;5132847;28;20430;-55
2022/03/14 08:03:57;;;;;;;0.57;0.57;;;;;;;10.38;32.44;96879.22;5132617;28;20434;-56
2022/03/14 08:06:25;;;;;;;0.60;0.60;;;;;;;11.02;31.42;96871.13;5132716;28;20427;-57
2022/03/14 08:08:57;;;;;;;1.27;1.17;;;;;;;12.34;30.55;96867.22;5132328;28;20569;-58
2022/03/14 08:11:29;;;;;;;1.10;1.10;;;;;;;11.91;29.45;96865.16;5135206;27;20509;-58
2022/03/14 08:14:00;;;;;;;0.93;0.93;;;;;;;12.10;28.14;96873.72;5136689;27;20427;-59
2022/03/14 08:16:28;;;;;;;1.23;1.20;;;;;;;11.72;28.75;96865.59;5136771;27;20512;-60
2022/03/14 08:18:57;;;;;;;0.80;0.80;;;;;;;13.02;28.44;96860.72;5136146;27;20980;-59
2022/03/14 08:21:25;;;;;;;1.33;1.23;;;;;;;12.20;28.14;96863.25;5135753;27;20858;-58
2022/03/14 08:23:55;;;;;;;0.63;0.63;;;;;;;13.22;28.01;96858.34;5136153;27;20426;-56
2022/03/14 08:26:24;;;;;;;1.63;1.53;;;;;;;12.59;27.50;96864.13;5136361;27;20410;-57
2022/03/14 08:28:52;;;;;;;1.03;0.90;;;;;;;12.88;27.42;96851.47;5136348;27;20458;-59
2022/03/14 08:31:22;;;;;;;2.23;2.10;;;;;;;12.83;27.91;96862.03;5136061;27;20518;-58
2022/03/14 08:33:51;;;;;;;2.30;1.17;;;;;;;13.87;27.59;96859.06;5137008;27;20434;-59
2022/03/14 08:36:22;;;;;;;0.73;0.40;;;;;;;13.49;26.87;96797.94;5137188;27;20915;-57
2022/03/14 08:38:51;;;;;;;2.40;0.93;;;;;;;12.73;27.82;96865.38;5136785;27;20426;-57
2022/03/14 08:41:21;;;;;;;0.80;0.80;;;;;;;12.43;27.53;96863.09;5136353;27;20425;-56
2022/03/14 08:43:49;;;;;;;0.80;0.70;;;;;;;13.38;27.29;96866.25;5136374;27;20426;-57
2022/03/14 08:46:18;;;;;;;0.70;0.40;;;;;;;14.20;27.23;96858.03;5136482;27;20422;-56
2022/03/14 08:48:47;;;;;;;0.80;0.60;;;;;;;14.43;25.32;96854.22;5136511;27;20441;-56
2022/03/14 08:51:16;;;;;;;0.40;0.40;;;;;;;15.08;24.77;96854.63;5135867;27;20461;-56
2022/03/14 08:53:45;;;;;;;0.50;0.50;;;;;;;13.73;25.75;96807.25;5135641;27;20526;-56
2022/03/14 08:56:14;;;;;;;1.53;0.87;;;;;;;13.99;26.33;96851.72;5135798;27;20423;-55
2022/03/14 08:58:44;;;;;;;1.03;0.43;;;;;;;15.24;25.87;96853.66;5135855;27;20926;-55
2022/03/14 09:01:13;;;;;;;6.23;1.57;;;;;;;15.83;25.58;96847.97;5136191;27;20430;-56
2022/03/14 09:03:43;;;;;;;4.67;0.40;;;;;;;14.87;25.46;96775.53;5136179;27;20945;-56
2022/03/14 09:06:12;;;;;;;1.60;0.70;;;;;;;16.06;24.21;96842.13;5135816;27;20427;-56
2022/03/14 09:08:40;;;;;;;0.50;0.50;;;;;;;16.85;24.18;96836.22;5135237;27;20930;-56
2022/03/14 09:11:09;;;;;;;0.80;0.80;;;;;;;16.76;23.18;96830.59;5135753;27;20503;-60
2022/03/14 09:13:38;;;;;;;0.40;0.30;;;;;;;17.31;24.23;96845.69;5135616;27;20974;-57
2022/03/14 09:16:08;;;;;;;0.80;0.80;;;;;;;16.15;23.72;96824.47;5135452;27;20427;-56
2022/03/14 09:18:37;;;;;;;1.67;1.37;;;;;;;16.92;22.96;96817.97;5135541;27;20993;-55
2022/03/14 09:21:06;;;;;;;2.30;2.20;;;;;;;16.28;24.30;96817.78;5135105;27;20427;-55
2022/03/14 09:23:34;;;;;;;4.10;0.93;;;;;;;16.75;23.31;96804.06;5134086;27;20431;-56
2022/03/14 09:26:02;;;;;;;0.80;0.80;;;;;;;16.85;22.26;96812.88;5135267;27;20473;-56
2022/03/14 09:28:31;;;;;;;1.03;1.03;;;;;;;15.78;23.59;96815.88;5135229;27;20463;-56
2022/03/14 09:30:59;;;;;;;0.97;0.97;;;;;;;15.40;24.29;96821.66;5135397;27;20922;-56
2022/03/14 09:33:29;;;;;;;2.23;0.97;;;;;;;16.14;23.66;96806.03;5135714;27;20789;-55
2022/03/14 09:35:58;;;;;;;1.03;1.03;;;;;;;16.02;23.92;96802.78;5135192;27;20529;-55
2022/03/14 09:38:27;;;;;;;1.03;0.93;;;;;;;15.65;23.42;96803.03;5135119;27;20486;-55
2022/03/14 09:41:01;;;;;;;1.83;1.73;;;;;;;16.30;22.28;96800.38;5135116;27;20426;-54
2022/03/14 09:43:32;;;;;;;0.40;0.30;;;;;;;16.52;21.99;96800.91;5135769;27;20442;-54
2022/03/14 09:46:01;;;;;;;1.17;1.07;;;;;;;18.02;22.10;96802.41;5135464;27;20483;-54
2022/03/14 09:48:36;;;;;;;2.83;0.90;;;;;;;17.59;21.66;96758.44;5134965;27;20435;-54
2022/03/14 09:51:07;;;;;;;0.50;0.40;;;;;;;17.96;21.22;96793.59;5134931;27;20430;-54
2022/03/14 09:53:37;;;;;;;0.40;0.30;;;;;;;18.76;19.44;96789.41;5135023;27;20495;-54
2022/03/14 09:56:06;;;;;;;2.43;1.70;;;;;;;17.37;21.12;96793.69;5134437;27;20431;-55
2022/03/14 09:58:35;;;;;;;0.90;0.90;;;;;;;17.86;19.88;96780.25;5134704;27;20484;-55
2022/03/14 10:01:04;;;;;;;0.63;0.50;;;;;;;17.98;19.92;96780.72;5134775;27;20434;-55
2022/03/14 10:03:35;;;;;;;0.40;0.30;;;;;;;16.70;21.12;96782.66;5134707;27;20510;-55
2022/03/14 10:06:04;;;;;;;0.73;0.73;;;;;;;16.08;20.98;96786.50;5134638;27;20434;-55
2022/03/14 10:08:33;;;;;;;3.10;0.97;;;;;;;17.96;20.92;96777.47;5134413;27;20466;-55
2022/03/14 10:11:01;;;;;;;1.20;0.90;;;;;;;18.84;19.42;96774.56;5134590;27;20513;-54
2022/03/14 10:13:45;;;;;;;0.93;0.83;;;;;;;17.84;21.28;96773.56;5134358;27;20426;-53
2022/03/14 10:16:14;;;;;;;0.80;0.50;;;;;;;17.33;19.96;96760.44;5134500;27;20447;-53
2022/03/14 10:19:01;;;;;;;3.93;2.33;;;;;;;16.24;19.90;96772.00;5134265;27;20526;-54
2022/03/14 10:21:32;;;;;;;0.70;0.70;;;;;;;18.36;19.20;96760.25;5133618;27;20899;-54
2022/03/14 10:24:01;;;;;;;0.40;0.30;;;;;;;17.22;19.08;96766.94;5134448;27;20475;-55
2022/03/14 10:26:31;;;;;;;1.00;1.00;;;;;;;18.03;18.98;96747.66;5134130;27;20434;-54
2022/03/14 10:29:01;;;;;;;0.63;0.50;;;;;;;17.45;19.20;96752.09;5134152;27;20462;-54
2022/03/14 10:31:37;;;;;;;0.50;0.40;;;;;;;16.30;18.93;96760.25;5134513;27;20423;-55
2022/03/14 10:34:10;;;;;;;0.40;0.30;;;;;;;17.15;18.72;96750.38;5132882;27;20427;-55
2022/03/14 10:36:45;;;;;;;0.50;0.50;;;;;;;18.77;18.07;96749.94;5134144;27;20858;-54
2022/03/14 10:39:20;;;;;;;0.40;0.30;;;;;;;20.30;16.87;96737.53;5133805;27;20495;-55
2022/03/14 10:42:02;;;;;;;0.50;0.40;;;;;;;20.20;17.75;96745.75;5132945;27;20520;-55
2022/03/14 10:44:48;;;;;;;1.07;0.57;;;;;;;21.01;16.58;96726.19;5133464;27;20426;-54
2022/03/14 10:47:19;;;;;;;0.40;0.30;;;;;;;18.20;19.00;96737.31;5133613;27;20487;-55
2022/03/14 10:49:50;;;;;;;2.63;0.60;;;;;;;15.83;20.74;96738.34;5133723;27;20430;-54
2022/03/14 10:52:21;;;;;;;0.40;0.30;;;;;;;16.82;19.51;96733.13;5133682;27;20434;-54
2022/03/14 10:54:51;;;;;;;0.90;0.90;;;;;;;17.71;18.60;96730.19;5133482;27;20456;-55
2022/03/14 10:57:23;;;;;;;1.37;1.27;;;;;;;16.80;19.43;96729.09;5133706;27;20426;-54
2022/03/14 10:59:54;;;;;;;0.50;0.30;;;;;;;18.83;18.33;96728.06;5133552;27;20479;-54
2022/03/14 11:02:23;;;;;;;0.43;0.40;;;;;;;20.61;16.85;96716.22;5133333;27;20473;-54
2022/03/14 11:04:55;;;;;;;0.40;0.30;;;;;;;18.21;17.01;96513.50;5133395;27;20452;-55
2022/03/14 11:07:27;;;;;;;0.93;0.40;;;;;;;18.64;18.27;96715.69;5133343;27;20473;-55
2022/03/14 11:09:57;;;;;;;0.50;0.30;;;;;;;18.17;18.78;96724.44;5133446;27;20464;-54
2022/03/14 11:12:30;;;;;;;0.80;0.80;;;;;;;20.10;17.55;96709.03;5133688;27;20427;-54
2022/03/14 11:15:00;;;;;;;0.40;0.30;;;;;;;20.84;17.46;96704.47;5133510;27;20972;-54
2022/03/14 11:17:30;;;;;;;0.50;0.47;;;;;;;17.84;18.48;96717.22;5133008;27;20454;-55
2022/03/14 11:20:17;;;;;;;0.80;0.50;;;;;;;18.82;17.50;96702.28;5133392;27;20934;-54
2022/03/14 11:22:46;;;;;;;0.50;0.50;;;;;;;19.57;17.74;96707.75;5133279;27;20785;-54
2022/03/14 11:25:16;;;;;;;0.40;0.30;;;;;;;18.71;17.82;96628.31;5133164;27;21028;-55
2022/03/14 11:27:47;;;;;;;0.40;0.30;;;;;;;19.03;17.96;96668.72;5133342;27;20850;-55
2022/03/14 11:30:17;;;;;;;0.50;0.50;;;;;;;20.43;16.98;96700.94;5133100;27;20438;-55
2022/03/14 11:32:46;;;;;;;0.40;0.40;;;;;;;20.49;16.72;96700.53;5133010;27;21005;-54
2022/03/14 11:35:17;;;;;;;0.70;0.70;;;;;;;20.63;16.56;96697.88;5132808;27;20456;-55
2022/03/14 11:37:46;;;;;;;0.93;0.93;;;;;;;19.62;18.53;96699.59;5132847;27;20918;-55
2022/03/14 11:40:17;;;;;;;0.40;0.30;;;;;;;17.73;19.07;96646.81;5132776;27;20427;-54
2022/03/14 11:42:46;;;;;;;0.80;0.80;;;;;;;20.87;16.56;96688.47;5132799;27;20458;-55
2022/03/14 11:45:16;;;;;;;0.40;0.30;;;;;;;21.99;16.15;96681.38;5132018;27;20531;-54
2022/03/14 11:47:47;;;;;;;0.50;0.50;;;;;;;19.89;16.74;96691.63;5133071;28;20513;-54
2022/03/14 11:50:19;;;;;;;0.47;0.40;;;;;;;20.30;18.03;96675.59;5132956;27;20418;-54